createdAt,value
2023-05-05T00:00:12.085Z,1159.00
2023-05-05T00:01:12.039Z,1158.00
2023-05-05T00:02:12.087Z,1157.00
2023-05-05T00:03:12.096Z,1159.00
2023-05-05T00:04:12.068Z,1162.00
2023-05-05T00:05:12.080Z,1162.00
2023-05-05T00:06:12.091Z,1160.00
2023-05-05T00:07:12.324Z,1158.00
2023-05-05T00:08:12.131Z,1156.00
2023-05-05T00:09:12.103Z,1156.00
2023-05-05T00:10:12.141Z,1156.00
2023-05-05T00:11:12.113Z,1155.00
2023-05-05T00:12:12.154Z,1155.00
2023-05-05T00:13:12.190Z,1154.00
2023-05-05T00:14:12.144Z,1150.00
2023-05-05T00:15:12.192Z,1148.00
2023-05-05T00:16:12.178Z,1147.00
2023-05-05T00:17:12.321Z,1148.00
2023-05-05T00:18:12.167Z,1150.00
2023-05-05T00:19:12.202Z,1146.00
2023-05-05T00:20:12.174Z,1144.00
2023-05-05T00:21:12.228Z,1145.00
2023-05-05T00:22:12.189Z,1143.00
2023-05-05T00:23:12.215Z,1141.00
2023-05-05T00:24:12.220Z,1141.00
2023-05-05T00:25:12.203Z,1139.00
2023-05-05T00:26:12.228Z,1137.00
2023-05-05T00:27:12.265Z,1139.00
2023-05-05T00:28:12.312Z,1138.00
2023-05-05T00:29:12.318Z,1137.00
2023-05-05T00:30:12.330Z,1139.00
2023-05-05T00:31:12.354Z,1139.00
2023-05-05T00:32:12.414Z,1140.00
2023-05-05T00:33:12.362Z,1142.00
2023-05-05T00:34:12.394Z,1140.00
2023-05-05T00:35:12.434Z,1140.00
2023-05-05T00:36:12.431Z,1141.00
2023-05-05T00:37:12.443Z,1141.00
2023-05-05T00:38:12.462Z,1142.00
2023-05-05T00:39:12.501Z,1141.00
2023-05-05T00:40:12.503Z,1140.00
2023-05-05T00:41:12.468Z,1139.00
2023-05-05T00:42:12.851Z,1138.00
2023-05-05T00:43:12.475Z,1140.00
2023-05-05T00:44:12.504Z,1136.00
2023-05-05T00:45:12.536Z,1134.00
2023-05-05T00:46:12.571Z,1134.00
2023-05-05T00:47:12.861Z,1135.00
2023-05-05T00:48:12.604Z,1133.00
2023-05-05T00:49:12.613Z,1134.00
2023-05-05T00:50:12.615Z,1130.00
2023-05-05T00:51:12.615Z,1133.00
2023-05-05T00:52:12.649Z,1134.00
2023-05-05T00:53:12.693Z,1135.00
2023-05-05T00:54:12.705Z,1136.00
2023-05-05T00:55:12.752Z,1136.00
2023-05-05T00:56:12.734Z,1132.00
2023-05-05T00:57:12.723Z,1131.00
2023-05-05T00:58:12.761Z,1131.00
2023-05-05T00:59:12.773Z,1132.00
2023-05-05T01:00:12.820Z,1129.00
2023-05-05T01:01:12.798Z,1127.00
2023-05-05T01:02:12.820Z,1125.00
2023-05-05T01:03:12.919Z,1120.00
2023-05-05T01:04:12.865Z,1117.00
2023-05-05T01:05:12.900Z,1119.00
2023-05-05T01:06:12.877Z,1119.00
2023-05-05T01:07:12.919Z,1120.00
2023-05-05T01:08:12.945Z,1118.00
2023-05-05T01:09:12.930Z,1114.00
2023-05-05T01:10:20.470Z,1110.00
2023-05-05T01:11:13.973Z,1113.00
2023-05-05T01:12:12.965Z,1113.00
2023-05-05T01:13:13.084Z,1113.00
2023-05-05T01:14:12.971Z,1112.00
2023-05-05T01:15:12.956Z,1111.00
2023-05-05T01:16:13.019Z,1112.00
2023-05-05T01:17:12.947Z,1109.00
2023-05-05T01:18:12.939Z,1109.00
2023-05-05T01:19:12.912Z,1106.00
2023-05-05T01:20:12.912Z,1107.00
2023-05-05T01:21:12.882Z,1108.00
2023-05-05T01:22:12.922Z,1109.00
2023-05-05T01:23:12.873Z,1107.00
2023-05-05T01:24:12.904Z,1105.00
2023-05-05T01:25:12.883Z,1102.00
2023-05-05T01:26:12.895Z,1100.00
2023-05-05T01:27:12.862Z,1099.00
2023-05-05T01:28:12.861Z,1098.00
2023-05-05T01:29:12.825Z,1099.00
2023-05-05T01:30:12.846Z,1102.00
2023-05-05T01:31:12.844Z,1099.00
2023-05-05T01:32:12.799Z,1096.00
2023-05-05T01:33:12.809Z,1099.00
2023-05-05T01:34:12.833Z,1097.00
2023-05-05T01:35:12.851Z,1097.00
2023-05-05T01:36:12.857Z,1097.00
2023-05-05T01:37:12.866Z,1097.00
2023-05-05T01:38:12.840Z,1098.00
2023-05-05T01:39:12.898Z,1100.00
2023-05-05T01:40:12.893Z,1100.00
2023-05-05T01:41:12.973Z,1099.00
2023-05-05T01:42:12.911Z,1098.00
2023-05-05T01:43:12.921Z,1097.00
2023-05-05T01:44:12.915Z,1095.00
2023-05-05T01:45:12.949Z,1092.00
2023-05-05T01:46:13.011Z,1090.00
2023-05-05T01:47:12.973Z,1089.00
2023-05-05T01:48:13.006Z,1087.00
2023-05-05T01:49:12.986Z,1087.00
2023-05-05T01:50:12.994Z,1085.00
2023-05-05T01:51:13.010Z,1084.00
2023-05-05T01:52:13.011Z,1084.00
2023-05-05T01:53:13.012Z,1084.00
2023-05-05T01:54:12.975Z,1085.00
2023-05-05T01:55:13.008Z,1089.00
2023-05-05T01:56:12.999Z,1095.00
2023-05-05T01:57:13.000Z,1094.00
2023-05-05T01:58:13.035Z,1092.00
2023-05-05T01:59:13.012Z,1089.00
2023-05-05T02:00:13.059Z,1089.00
2023-05-05T02:01:13.107Z,1089.00
2023-05-05T02:02:13.114Z,1083.00
2023-05-05T02:03:13.199Z,1084.00
2023-05-05T02:04:13.084Z,1087.00
2023-05-05T02:05:13.108Z,1083.00
2023-05-05T02:06:13.130Z,1085.00
2023-05-05T02:07:13.119Z,1087.00
2023-05-05T02:08:13.392Z,1087.00
2023-05-05T02:09:13.167Z,1087.00
2023-05-05T02:10:13.143Z,1088.00
2023-05-05T02:11:13.148Z,1090.00
2023-05-05T02:12:13.188Z,1089.00
2023-05-05T02:13:13.396Z,1085.00
2023-05-05T02:14:13.294Z,1085.00
2023-05-05T02:15:13.219Z,1083.00
2023-05-05T02:16:13.391Z,1082.00
2023-05-05T02:17:13.268Z,1080.00
2023-05-05T02:18:13.260Z,1077.00
2023-05-05T02:19:13.224Z,1074.00
2023-05-05T02:20:13.237Z,1074.00
2023-05-05T02:21:13.246Z,1075.00
2023-05-05T02:22:13.267Z,1074.00
2023-05-05T02:23:13.265Z,1076.00
2023-05-05T02:24:13.261Z,1075.00
2023-05-05T02:25:13.284Z,1072.00
2023-05-05T02:26:13.321Z,1072.00
2023-05-05T02:27:13.303Z,1072.00
2023-05-05T02:28:13.412Z,1070.00
2023-05-05T02:29:13.334Z,1064.00
2023-05-05T02:30:13.364Z,1059.00
2023-05-05T02:31:13.418Z,1062.00
2023-05-05T02:32:13.326Z,1059.00
2023-05-05T02:33:13.360Z,1062.00
2023-05-05T02:34:13.373Z,1062.00
2023-05-05T02:35:13.387Z,1065.00
2023-05-05T02:36:13.384Z,1064.00
2023-05-05T02:37:13.360Z,1060.00
2023-05-05T02:38:13.372Z,1060.00
2023-05-05T02:39:13.420Z,1058.00
2023-05-05T02:40:13.422Z,1055.00
2023-05-05T02:41:13.437Z,1052.00
2023-05-05T02:42:13.431Z,1055.00
2023-05-05T02:43:13.485Z,1055.00
2023-05-05T02:44:13.456Z,1057.00
2023-05-05T02:45:13.481Z,1061.00
2023-05-05T02:46:13.471Z,1060.00
2023-05-05T02:47:13.469Z,1058.00
2023-05-05T02:48:13.503Z,1058.00
2023-05-05T02:49:13.467Z,1058.00
2023-05-05T02:50:13.504Z,1058.00
2023-05-05T02:51:13.555Z,1057.00
2023-05-05T02:52:13.532Z,1058.00
2023-05-05T02:53:13.549Z,1057.00
2023-05-05T02:54:13.535Z,1053.00
2023-05-05T02:55:13.566Z,1051.00
2023-05-05T02:56:13.586Z,1049.00
2023-05-05T02:57:13.599Z,1045.00
2023-05-05T02:58:13.639Z,1046.00
2023-05-05T02:59:15.966Z,1049.00
2023-05-05T03:00:13.646Z,1048.00
2023-05-05T03:01:13.659Z,1048.00
2023-05-05T03:02:13.593Z,1049.00
2023-05-05T03:03:13.660Z,1049.00
2023-05-05T03:04:13.589Z,1047.00
2023-05-05T03:05:13.560Z,1047.00
2023-05-05T03:06:13.609Z,1045.00
2023-05-05T03:07:13.607Z,1046.00
2023-05-05T03:08:13.548Z,1044.00
2023-05-05T03:09:13.549Z,1042.00
2023-05-05T03:10:13.559Z,1044.00
2023-05-05T03:11:13.560Z,1043.00
2023-05-05T03:12:13.559Z,1041.00
2023-05-05T03:13:13.649Z,1039.00
2023-05-05T03:14:13.545Z,1037.00
2023-05-05T03:15:13.533Z,1034.00
2023-05-05T03:16:13.501Z,1035.00
2023-05-05T03:17:13.532Z,1034.00
2023-05-05T03:18:13.509Z,1034.00
2023-05-05T03:19:13.484Z,1035.00
2023-05-05T03:20:13.484Z,1035.00
2023-05-05T03:21:13.499Z,1033.00
2023-05-05T03:22:13.503Z,1037.00
2023-05-05T03:23:13.484Z,1035.00
2023-05-05T03:24:13.450Z,1037.00
2023-05-05T03:25:13.430Z,1037.00
2023-05-05T03:26:13.449Z,1038.00
2023-05-05T03:27:13.429Z,1036.00
2023-05-05T03:28:13.441Z,1035.00
2023-05-05T03:29:13.403Z,1033.00
2023-05-05T03:30:13.395Z,1033.00
2023-05-05T03:31:13.400Z,1031.00
2023-05-05T03:32:13.429Z,1027.00
2023-05-05T03:33:13.392Z,1026.00
2023-05-05T03:34:13.382Z,1025.00
2023-05-05T03:35:13.412Z,1024.00
2023-05-05T03:36:13.401Z,1021.00
2023-05-05T03:37:13.428Z,1021.00
2023-05-05T03:38:13.376Z,1020.00
2023-05-05T03:39:13.366Z,1019.00
2023-05-05T03:40:13.361Z,1021.00
2023-05-05T03:41:13.375Z,1024.00
2023-05-05T03:42:13.338Z,1024.00
2023-05-05T03:43:13.333Z,1023.00
2023-05-05T03:44:13.325Z,1021.00
2023-05-05T03:45:13.313Z,1024.00
2023-05-05T03:46:13.315Z,1023.00
2023-05-05T03:47:13.277Z,1024.00
2023-05-05T03:48:13.267Z,1021.00
2023-05-05T03:49:13.294Z,1020.00
2023-05-05T03:50:13.282Z,1018.00
2023-05-05T03:51:13.278Z,1021.00
2023-05-05T03:52:14.977Z,1020.00
2023-05-05T03:53:13.258Z,1020.00
2023-05-05T03:54:13.251Z,1018.00
2023-05-05T03:55:13.236Z,1022.00
2023-05-05T03:56:13.225Z,1023.00
2023-05-05T03:57:13.236Z,1025.00
2023-05-05T03:58:13.243Z,1023.00
2023-05-05T03:59:13.230Z,1020.00
2023-05-05T04:00:13.213Z,1018.00
2023-05-05T04:01:13.194Z,1017.00
2023-05-05T04:02:13.203Z,1016.00
2023-05-05T04:03:13.359Z,1016.00
2023-05-05T04:04:13.259Z,1013.00
2023-05-05T04:05:13.180Z,1010.00
2023-05-05T04:06:13.156Z,1006.00
2023-05-05T04:07:13.229Z,1006.00
2023-05-05T04:08:13.450Z,1004.00
2023-05-05T04:09:13.133Z,1004.00
2023-05-05T04:10:13.162Z,1005.00
2023-05-05T04:11:13.161Z,1007.00
2023-05-05T04:12:13.143Z,1006.00
2023-05-05T04:13:13.217Z,1004.00
2023-05-05T04:14:13.126Z,1003.00
2023-05-05T04:15:13.116Z,1006.00
2023-05-05T04:16:13.151Z,1006.00
2023-05-05T04:17:13.105Z,1003.00
2023-05-05T04:18:13.869Z,1004.00
2023-05-05T04:19:13.106Z,1001.00
2023-05-05T04:20:13.102Z,999.00
2023-05-05T04:21:13.107Z,1000.00
2023-05-05T04:22:13.059Z,1001.00
2023-05-05T04:23:13.457Z,1001.00
2023-05-05T04:24:13.073Z,1000.00
2023-05-05T04:25:13.073Z,1001.00
2023-05-05T04:26:13.051Z,999.00
2023-05-05T04:27:13.071Z,1000.00
2023-05-05T04:28:13.074Z,998.00
2023-05-05T04:29:13.106Z,997.00
2023-05-05T04:30:13.182Z,997.00
2023-05-05T04:31:13.158Z,995.00
2023-05-05T04:32:13.117Z,993.00
2023-05-05T04:33:13.150Z,996.00
2023-05-05T04:34:13.112Z,992.00
2023-05-05T04:35:13.216Z,990.00
2023-05-05T04:36:13.141Z,991.00
2023-05-05T04:37:13.188Z,991.00
2023-05-05T04:38:13.230Z,990.00
2023-05-05T04:39:13.234Z,992.00
2023-05-05T04:40:13.249Z,990.00
2023-05-05T04:41:13.209Z,988.00
2023-05-05T04:42:13.240Z,986.00
2023-05-05T04:43:13.264Z,987.00
2023-05-05T04:44:13.279Z,985.00
2023-05-05T04:45:13.244Z,984.00
2023-05-05T04:46:13.272Z,984.00
2023-05-05T04:47:14.656Z,981.00
2023-05-05T04:48:13.317Z,982.00
2023-05-05T04:49:13.344Z,982.00
2023-05-05T04:50:13.375Z,980.00
2023-05-05T04:51:13.344Z,981.00
2023-05-05T04:52:13.379Z,982.00
2023-05-05T04:53:13.399Z,982.00
2023-05-05T04:54:13.407Z,979.00
2023-05-05T04:55:13.456Z,981.00
2023-05-05T04:56:13.494Z,980.00
2023-05-05T04:57:13.491Z,977.00
2023-05-05T04:58:13.535Z,978.00
2023-05-05T04:59:13.540Z,978.00
2023-05-05T05:00:13.569Z,979.00
2023-05-05T05:01:13.553Z,980.00
2023-05-05T05:02:13.677Z,980.00
2023-05-05T05:03:13.620Z,980.00
2023-05-05T05:04:13.578Z,980.00
2023-05-05T05:05:13.615Z,979.00
2023-05-05T05:06:13.632Z,980.00
2023-05-05T05:07:13.638Z,978.00
2023-05-05T05:08:13.640Z,978.00
2023-05-05T05:09:13.645Z,976.00
2023-05-05T05:10:13.657Z,976.00
2023-05-05T05:11:13.668Z,977.00
2023-05-05T05:12:13.690Z,977.00
2023-05-05T05:13:13.800Z,975.00
2023-05-05T05:14:13.721Z,975.00
2023-05-05T05:15:13.762Z,975.00
2023-05-05T05:16:13.807Z,976.00
2023-05-05T05:17:13.770Z,974.00
2023-05-05T05:18:13.820Z,973.00
2023-05-05T05:19:13.772Z,974.00
2023-05-05T05:20:13.776Z,973.00
2023-05-05T05:21:13.849Z,967.00
2023-05-05T05:22:13.833Z,964.00
2023-05-05T05:23:13.858Z,966.00
2023-05-05T05:24:13.838Z,966.00
2023-05-05T05:25:13.876Z,968.00
2023-05-05T05:26:13.880Z,968.00
2023-05-05T05:27:13.887Z,967.00
2023-05-05T05:28:13.894Z,964.00
2023-05-05T05:29:13.925Z,963.00
2023-05-05T05:30:13.937Z,964.00
2023-05-05T05:31:13.983Z,962.00
2023-05-05T05:32:13.996Z,963.00
2023-05-05T05:33:13.984Z,959.00
2023-05-05T05:34:14.024Z,959.00
2023-05-05T05:35:14.031Z,958.00
2023-05-05T05:36:14.004Z,957.00
2023-05-05T05:37:14.041Z,959.00
2023-05-05T05:38:14.470Z,960.00
2023-05-05T05:39:14.069Z,960.00
2023-05-05T05:40:14.028Z,965.00
2023-05-05T05:41:14.068Z,963.00
2023-05-05T05:42:14.086Z,962.00
2023-05-05T05:43:14.089Z,961.00
2023-05-05T05:44:14.098Z,957.00
2023-05-05T05:45:14.130Z,957.00
2023-05-05T05:46:14.256Z,957.00
2023-05-05T05:47:14.165Z,958.00
2023-05-05T05:48:14.175Z,957.00
2023-05-05T05:49:14.312Z,960.00
2023-05-05T05:50:14.177Z,960.00
2023-05-05T05:51:14.145Z,961.00
2023-05-05T05:52:14.149Z,959.00
2023-05-05T05:53:14.177Z,960.00
2023-05-05T05:54:14.168Z,960.00
2023-05-05T05:55:14.184Z,962.00
2023-05-05T05:56:14.987Z,964.00
2023-05-05T05:57:14.191Z,965.00
2023-05-05T05:58:14.505Z,957.00
2023-05-05T05:59:14.194Z,957.00
2023-05-05T06:00:14.207Z,958.00
2023-05-05T06:01:14.217Z,956.00
2023-05-05T06:02:14.351Z,955.00
2023-05-05T06:03:14.814Z,977.00
2023-05-05T06:04:14.250Z,1002.00
2023-05-05T06:05:14.242Z,1019.00
2023-05-05T06:06:14.261Z,1080.00
2023-05-05T06:07:14.249Z,1102.00
2023-05-05T06:08:14.312Z,1109.00
2023-05-05T06:09:14.589Z,1113.00
2023-05-05T06:10:26.590Z,1124.00
2023-05-05T06:11:15.384Z,1144.00
2023-05-05T06:12:14.388Z,1064.00
2023-05-05T06:13:14.381Z,1040.00
2023-05-05T06:14:14.505Z,1046.00
2023-05-05T06:15:14.342Z,1054.00
2023-05-05T06:16:14.329Z,1041.00
2023-05-05T06:17:14.316Z,1004.00
2023-05-05T06:18:14.360Z,983.00
2023-05-05T06:19:14.511Z,982.00
2023-05-05T06:20:14.325Z,917.00
2023-05-05T06:21:14.375Z,988.00
2023-05-05T06:22:14.413Z,1017.00
2023-05-05T06:23:14.482Z,1010.00
2023-05-05T06:24:14.551Z,992.00
2023-05-05T06:25:14.588Z,1005.00
2023-05-05T06:26:14.631Z,1006.00
2023-05-05T06:27:14.665Z,1009.00
2023-05-05T06:28:14.717Z,968.00
2023-05-05T06:29:14.737Z,964.00
2023-05-05T06:30:14.827Z,993.00
2023-05-05T06:31:14.892Z,1006.00
2023-05-05T06:32:14.894Z,963.00
2023-05-05T06:33:14.957Z,971.00
2023-05-05T06:34:15.005Z,977.00
2023-05-05T06:35:15.009Z,975.00
2023-05-05T06:36:15.060Z,981.00
2023-05-05T06:37:15.061Z,973.00
2023-05-05T06:38:15.139Z,961.00
2023-05-05T06:39:16.226Z,906.00
2023-05-05T06:40:15.164Z,928.00
2023-05-05T06:41:15.225Z,923.00
2023-05-05T06:42:15.220Z,870.00
2023-05-05T06:43:15.259Z,881.00
2023-05-05T06:44:15.313Z,908.00
2023-05-05T06:45:15.353Z,941.00
2023-05-05T06:46:15.411Z,952.00
2023-05-05T06:47:15.399Z,959.00
2023-05-05T06:48:15.437Z,963.00
2023-05-05T06:49:15.449Z,965.00
2023-05-05T06:50:15.492Z,884.00
2023-05-05T06:51:15.561Z,940.00
2023-05-05T06:52:15.546Z,951.00
2023-05-05T06:53:15.562Z,951.00
2023-05-05T06:54:15.647Z,666.00
2023-05-05T06:55:15.675Z,912.00
2023-05-05T06:56:15.720Z,932.00
2023-05-05T06:57:15.763Z,969.00
2023-05-05T06:58:15.839Z,995.00
2023-05-05T06:59:15.926Z,991.00
2023-05-05T07:00:15.918Z,988.00
2023-05-05T07:01:15.962Z,1003.00
2023-05-05T07:02:15.996Z,1022.00
2023-05-05T07:03:16.289Z,1078.00
2023-05-05T07:04:16.180Z,1077.00
2023-05-05T07:05:16.072Z,1082.00
2023-05-05T07:06:16.083Z,1095.00
2023-05-05T07:07:16.114Z,1111.00
2023-05-05T07:08:16.108Z,1137.00
2023-05-05T07:09:17.221Z,1111.00
2023-05-05T07:10:16.145Z,1138.00
2023-05-05T07:11:16.145Z,1158.00
2023-05-05T07:12:16.158Z,1174.00
2023-05-05T07:13:16.228Z,1150.00
2023-05-05T07:14:16.171Z,1180.00
2023-05-05T07:15:27.450Z,1193.00
2023-05-05T07:16:17.196Z,1197.00
2023-05-05T07:17:16.159Z,1207.00
2023-05-05T07:18:16.165Z,1210.00
2023-05-05T07:19:16.279Z,1234.00
2023-05-05T07:20:16.154Z,1245.00
2023-05-05T07:21:16.156Z,1253.00
2023-05-05T07:22:16.139Z,1261.00
2023-05-05T07:23:16.214Z,1266.00
2023-05-05T07:24:16.115Z,1268.00
2023-05-05T07:25:16.117Z,1268.00
2023-05-05T07:26:16.091Z,1275.00
2023-05-05T07:27:16.096Z,1285.00
2023-05-05T07:28:16.088Z,1384.00
2023-05-05T07:29:16.077Z,1229.00
2023-05-05T07:30:18.419Z,1258.00
2023-05-05T07:31:16.189Z,1256.00
2023-05-05T07:32:16.180Z,1315.00
2023-05-05T07:33:16.203Z,1336.00
2023-05-05T07:34:16.230Z,1352.00
2023-05-05T07:35:16.359Z,1316.00
2023-05-05T07:36:16.298Z,1323.00
2023-05-05T07:37:16.357Z,1377.00
2023-05-05T07:38:16.396Z,1384.00
2023-05-05T07:39:16.446Z,1382.00
2023-05-05T07:40:16.503Z,1383.00
2023-05-05T07:41:16.561Z,1005.00
2023-05-05T07:42:16.620Z,1338.00
2023-05-05T07:43:16.688Z,1263.00
2023-05-05T07:44:16.737Z,1346.00
2023-05-05T07:45:16.798Z,1388.00
2023-05-05T07:46:16.886Z,1422.00
2023-05-05T07:47:16.907Z,1446.00
2023-05-05T07:48:16.968Z,1463.00
2023-05-05T07:49:17.024Z,1463.00
2023-05-05T07:50:17.094Z,1519.00
2023-05-05T07:51:17.179Z,1587.00
2023-05-05T07:52:17.198Z,1594.00
2023-05-05T07:53:17.212Z,1645.00
2023-05-05T07:54:17.259Z,1794.00
2023-05-05T07:55:17.328Z,1729.00
2023-05-05T07:56:17.388Z,1718.00
2023-05-05T07:57:17.394Z,1725.00
2023-05-05T07:58:17.467Z,1730.00
2023-05-05T07:59:17.511Z,1812.00
2023-05-05T08:00:17.549Z,1850.00
2023-05-05T08:01:17.590Z,1844.00
2023-05-05T08:02:17.653Z,1863.00
2023-05-05T08:03:17.706Z,1873.00
2023-05-05T08:04:18.097Z,1897.00
2023-05-05T08:05:17.747Z,1920.00
2023-05-05T08:06:17.798Z,1938.00
2023-05-05T08:07:17.939Z,2053.00
2023-05-05T08:08:17.842Z,2038.00
2023-05-05T08:09:17.892Z,2042.00
2023-05-05T08:10:17.891Z,2047.00
2023-05-05T08:11:17.929Z,2056.00
2023-05-05T08:12:17.967Z,2064.00
2023-05-05T08:13:18.087Z,2065.00
2023-05-05T08:14:18.056Z,2076.00
2023-05-05T08:15:18.036Z,2108.00
2023-05-05T08:16:18.098Z,2129.00
2023-05-05T08:17:18.087Z,2159.00
2023-05-05T08:18:18.151Z,2174.00
2023-05-05T08:19:28.288Z,2215.00
2023-05-05T08:20:19.119Z,2231.00
2023-05-05T08:21:18.117Z,2158.00
2023-05-05T08:22:18.123Z,2146.00
2023-05-05T08:23:18.234Z,2126.00
2023-05-05T08:24:18.559Z,2123.00
2023-05-05T08:25:18.098Z,2116.00
2023-05-05T08:26:18.119Z,2108.00
2023-05-05T08:27:18.090Z,2096.00
2023-05-05T08:28:18.091Z,2096.00
2023-05-05T08:29:18.583Z,1958.00
2023-05-05T08:30:18.085Z,2018.00
2023-05-05T08:31:18.089Z,2031.00
2023-05-05T08:32:18.051Z,2059.00
2023-05-05T08:33:18.143Z,2062.00
2023-05-05T08:34:18.043Z,2060.00
2023-05-05T08:35:18.095Z,2076.00
2023-05-05T08:36:18.047Z,2081.00
2023-05-05T08:37:18.014Z,1980.00
2023-05-05T08:38:17.988Z,2004.00
2023-05-05T08:39:18.304Z,2043.00
2023-05-05T08:40:18.110Z,2045.00
2023-05-05T08:41:18.087Z,2036.00
2023-05-05T08:42:29.301Z,1992.00
2023-05-05T08:43:19.096Z,2003.00
2023-05-05T08:44:18.109Z,1996.00
2023-05-05T08:45:18.077Z,2036.00
2023-05-05T08:46:18.192Z,2061.00
2023-05-05T08:47:18.067Z,2081.00
2023-05-05T08:48:18.031Z,2090.00
2023-05-05T08:49:18.069Z,2097.00
2023-05-05T08:50:18.084Z,2105.00
2023-05-05T08:51:18.033Z,2220.00
2023-05-05T08:52:18.121Z,2202.00
2023-05-05T08:53:18.039Z,2203.00
2023-05-05T08:54:18.109Z,2217.00
2023-05-05T08:55:18.078Z,2245.00
2023-05-05T08:56:17.973Z,2276.00
2023-05-05T08:57:17.998Z,2298.00
2023-05-05T08:58:18.020Z,2321.00
2023-05-05T08:59:17.971Z,2429.00
2023-05-05T09:00:17.964Z,2405.00
2023-05-05T09:01:18.017Z,2429.00
2023-05-05T09:02:18.007Z,2451.00
2023-05-05T09:03:18.032Z,2467.00
2023-05-05T09:04:17.976Z,2469.00
2023-05-05T09:05:17.962Z,2473.00
2023-05-05T09:06:17.990Z,2469.00
2023-05-05T09:07:18.094Z,2486.00
2023-05-05T09:08:18.133Z,2532.00
2023-05-05T09:09:18.140Z,2533.00
2023-05-05T09:10:18.128Z,2548.00
2023-05-05T09:11:18.268Z,2548.00
2023-05-05T09:12:18.165Z,2573.00
2023-05-05T09:13:18.245Z,2595.00
2023-05-05T09:14:18.188Z,2618.00
2023-05-05T09:15:18.178Z,2638.00
2023-05-05T09:16:18.215Z,2658.00
2023-05-05T09:17:18.176Z,2704.00
2023-05-05T09:18:18.242Z,2747.00
2023-05-05T09:19:18.582Z,2749.00
2023-05-05T09:20:18.206Z,2759.00
2023-05-05T09:21:18.233Z,2794.00
2023-05-05T09:22:18.220Z,2814.00
2023-05-05T09:23:18.244Z,2822.00
2023-05-05T09:24:18.248Z,2828.00
2023-05-05T09:25:18.237Z,2875.00
2023-05-05T09:26:18.225Z,2875.00
2023-05-05T09:27:18.302Z,2890.00
2023-05-05T09:28:18.258Z,2910.00
2023-05-05T09:29:18.222Z,2929.00
2023-05-05T09:30:18.265Z,2931.00
2023-05-05T09:31:18.271Z,2941.00
2023-05-05T09:32:18.230Z,2943.00
2023-05-05T09:33:18.270Z,2974.00
2023-05-05T09:34:18.263Z,2999.00
2023-05-05T09:35:18.306Z,3017.00
2023-05-05T09:36:18.308Z,3039.00
2023-05-05T09:37:18.310Z,3047.00
2023-05-05T09:38:18.327Z,3058.00
2023-05-05T09:39:18.600Z,3065.00
2023-05-05T09:40:18.385Z,3084.00
2023-05-05T09:41:18.364Z,3101.00
2023-05-05T09:42:18.410Z,3115.00
2023-05-05T09:43:18.474Z,3132.00
2023-05-05T09:44:18.412Z,3160.00
2023-05-05T09:45:18.622Z,3179.00
2023-05-05T09:46:18.516Z,3208.00
2023-05-05T09:47:28.945Z,3228.00
2023-05-05T09:48:19.458Z,3249.00
2023-05-05T09:49:18.445Z,3269.00
2023-05-05T09:50:18.831Z,3282.00
2023-05-05T09:51:18.404Z,3294.00
2023-05-05T09:52:18.411Z,3307.00
2023-05-05T09:53:18.391Z,3312.00
2023-05-05T09:54:19.505Z,3315.00
2023-05-05T09:55:18.423Z,3326.00
2023-05-05T09:56:18.376Z,3340.00
2023-05-05T09:57:18.416Z,3347.00
2023-05-05T09:58:18.537Z,3354.00
2023-05-05T09:59:18.588Z,3361.00
2023-05-05T10:00:18.583Z,3372.00
2023-05-05T10:01:18.616Z,3399.00
2023-05-05T10:02:18.648Z,3404.00
2023-05-05T10:03:18.694Z,3346.00
2023-05-05T10:04:18.748Z,3358.00
2023-05-05T10:05:18.927Z,3362.00
2023-05-05T10:06:18.820Z,3382.00
2023-05-05T10:07:18.845Z,3391.00
2023-05-05T10:08:18.909Z,3405.00
2023-05-05T10:09:18.967Z,3414.00
2023-05-05T10:10:18.992Z,3421.00
2023-05-05T10:11:19.025Z,3434.00
2023-05-05T10:12:19.065Z,3563.00
2023-05-05T10:13:19.170Z,3525.00
2023-05-05T10:14:19.180Z,3521.00
2023-05-05T10:15:19.314Z,3519.00
2023-05-05T10:16:19.288Z,3526.00
2023-05-05T10:17:19.359Z,3527.00
2023-05-05T10:18:19.412Z,3523.00
2023-05-05T10:19:19.589Z,3521.00
2023-05-05T10:20:19.507Z,3523.00
2023-05-05T10:21:19.550Z,3517.00
2023-05-05T10:22:19.615Z,3520.00
2023-05-05T10:23:19.662Z,3535.00
2023-05-05T10:24:19.678Z,3543.00
2023-05-05T10:25:19.784Z,3554.00
2023-05-05T10:26:19.857Z,3576.00
2023-05-05T10:27:19.908Z,3585.00
2023-05-05T10:28:19.927Z,3594.00
2023-05-05T10:29:20.009Z,3599.00
2023-05-05T10:30:20.058Z,3629.00
2023-05-05T10:31:25.030Z,3643.00
2023-05-05T10:32:46.517Z,3648.00
2023-05-05T10:34:20.086Z,3672.00
2023-05-05T10:35:20.083Z,3778.00
2023-05-05T10:36:20.074Z,3746.00
2023-05-05T10:37:20.089Z,3855.00
2023-05-05T10:38:20.060Z,3795.00
2023-05-05T10:39:20.065Z,3718.00
2023-05-05T10:40:20.148Z,3736.00
2023-05-05T10:41:20.071Z,3744.00
2023-05-05T10:42:20.036Z,3747.00
2023-05-05T10:43:20.024Z,3857.00
2023-05-05T10:44:20.016Z,3850.00
2023-05-05T10:45:20.124Z,3807.00
2023-05-05T10:46:20.047Z,3794.00
2023-05-05T10:47:20.065Z,3761.00
2023-05-05T10:48:20.017Z,3799.00
2023-05-05T10:49:19.969Z,3765.00
2023-05-05T10:50:20.159Z,3765.00
2023-05-05T10:51:30.937Z,3751.00
2023-05-05T10:52:20.970Z,3763.00
2023-05-05T10:53:19.973Z,3861.00
2023-05-05T10:54:19.980Z,3711.00
2023-05-05T10:55:20.132Z,3720.00
2023-05-05T10:56:19.998Z,3906.00
2023-05-05T10:57:19.946Z,3778.00
2023-05-05T10:58:19.903Z,3614.00
2023-05-05T10:59:19.922Z,3618.00
2023-05-05T11:00:20.115Z,3622.00
2023-05-05T11:01:19.893Z,3725.00
2023-05-05T11:02:19.929Z,3756.00
2023-05-05T11:03:20.007Z,3714.00
2023-05-05T11:04:19.891Z,3678.00
2023-05-05T11:05:20.138Z,3667.00
2023-05-05T11:06:19.875Z,3658.00
2023-05-05T11:07:19.866Z,3650.00
2023-05-05T11:08:19.829Z,3644.00
2023-05-05T11:09:19.883Z,3640.00
2023-05-05T11:10:20.111Z,3645.00
2023-05-05T11:11:19.850Z,3653.00
2023-05-05T11:12:19.847Z,3658.00
2023-05-05T11:13:19.997Z,3661.00
2023-05-05T11:14:19.858Z,3674.00
2023-05-05T11:15:20.136Z,3684.00
2023-05-05T11:16:19.934Z,3687.00
2023-05-05T11:17:19.904Z,3693.00
2023-05-05T11:18:19.884Z,3707.00
2023-05-05T11:19:20.097Z,3715.00
2023-05-05T11:20:20.124Z,3721.00
2023-05-05T11:21:19.914Z,3722.00
2023-05-05T11:22:19.896Z,3725.00
2023-05-05T11:23:19.892Z,3725.00
2023-05-05T11:24:19.916Z,3732.00
2023-05-05T11:25:20.130Z,3734.00
2023-05-05T11:26:19.893Z,3734.00
2023-05-05T11:27:19.899Z,3736.00
2023-05-05T11:28:19.917Z,3736.00
2023-05-05T11:29:19.920Z,3739.00
2023-05-05T11:30:19.919Z,3747.00
2023-05-05T11:31:20.084Z,3753.00
2023-05-05T11:32:19.946Z,3753.00
2023-05-05T11:33:19.898Z,3750.00
2023-05-05T11:34:19.898Z,3746.00
2023-05-05T11:35:20.257Z,3735.00
2023-05-05T11:36:19.932Z,3732.00
2023-05-05T11:37:19.921Z,3720.00
2023-05-05T11:38:19.919Z,3705.00
2023-05-05T11:39:19.937Z,3596.00
2023-05-05T11:40:19.997Z,3527.00
2023-05-05T11:41:19.980Z,3480.00
2023-05-05T11:42:19.978Z,3424.00
2023-05-05T11:43:20.020Z,3350.00
2023-05-05T11:44:20.064Z,3290.00
2023-05-05T11:45:20.126Z,3230.00
2023-05-05T11:46:20.181Z,3212.00
2023-05-05T11:47:20.120Z,3201.00
2023-05-05T11:48:20.214Z,3173.00
2023-05-05T11:49:20.159Z,3125.00
2023-05-05T11:50:20.170Z,3110.00
2023-05-05T11:51:20.325Z,3087.00
2023-05-05T11:52:20.210Z,3064.00
2023-05-05T11:53:20.231Z,3053.00
2023-05-05T11:54:20.273Z,3046.00
2023-05-05T11:55:20.326Z,3040.00
2023-05-05T11:56:20.311Z,3033.00
2023-05-05T11:57:20.330Z,3028.00
2023-05-05T11:58:20.324Z,3029.00
2023-05-05T11:59:20.407Z,3030.00
2023-05-05T12:00:20.453Z,3025.00
2023-05-05T12:01:20.423Z,3021.00
2023-05-05T12:02:20.434Z,3019.00
2023-05-05T12:03:20.528Z,3017.00
2023-05-05T12:04:20.531Z,3012.00
2023-05-05T12:05:20.687Z,3012.00
2023-05-05T12:06:20.507Z,3012.00
2023-05-05T12:07:20.580Z,3013.00
2023-05-05T12:08:20.601Z,3016.00
2023-05-05T12:09:20.616Z,3012.00
2023-05-05T12:10:20.658Z,3010.00